Time;durP1;ratioP1;P1;durP2;ratioP2;P2;SDS_P1;SDS_P2;PMS_P1;PMS_P2;Temp;Humidity;BMP_temperature;BMP_pressure;BME280_temperature;BME280_humidity;BME280_pressure;Samples;Min_cycle;Max_cycle;Signal;HPM_P1;HPM_P2
2023/02/01 00:01:55;;;;;;;41.30;6.13;;;6.20;99.90;;;;;;6272049;22;20040;-79
2023/02/01 00:04:21;;;;;;;45.17;6.85;;;6.20;99.90;;;;;;6223612;22;20506;-79
2023/02/01 00:06:47;;;;;;;37.00;5.68;;;6.40;99.90;;;;;;6222618;22;20011;-79
2023/02/01 00:09:13;;;;;;;39.40;5.70;;;6.20;99.90;;;;;;6221576;22;20022;-79
2023/02/01 00:11:39;;;;;;;40.10;5.45;;;6.30;99.90;;;;;;6222780;22;20012;-79
2023/02/01 00:14:05;;;;;;;42.83;6.25;;;6.30;99.90;;;;;;6222827;22;20058;-79
2023/02/01 00:16:31;;;;;;;33.95;5.70;;;6.20;99.90;;;;;;6197452;22;20022;-79
2023/02/01 00:19:20;;;;;;;37.17;5.30;;;6.40;99.90;;;;;;6248060;22;20090;-79
2023/02/01 00:21:45;;;;;;;34.00;5.15;;;6.20;99.90;;;;;;6219017;22;20011;-79
2023/02/01 00:24:12;;;;;;;39.13;5.65;;;6.30;99.90;;;;;;6271369;22;20653;-78
2023/02/01 00:26:42;;;;;;;38.80;6.30;;;6.40;99.90;;;;;;6222991;22;20012;-78
2023/02/01 00:29:14;;;;;;;31.35;5.45;;;6.30;99.90;;;;;;6248577;22;20011;-79
2023/02/01 00:31:40;;;;;;;35.38;5.15;;;6.30;99.90;;;;;;6216758;22;20011;-78
2023/02/01 00:34:14;;;;;;;37.95;5.55;;;6.20;99.90;;;;;;6246428;22;20008;-78
2023/02/01 00:36:42;;;;;;;29.95;5.38;;;6.20;99.90;;;;;;6245540;22;20007;-78
2023/02/01 00:39:08;;;;;;;24.75;5.30;;;6.30;99.90;;;;;;6217780;22;20101;-78
2023/02/01 00:41:34;;;;;;;36.42;5.45;;;6.30;99.90;;;;;;6218157;22;20011;-78
2023/02/01 00:44:01;;;;;;;30.02;4.47;;;6.40;99.90;;;;;;6220887;22;20030;-78
2023/02/01 00:46:26;;;;;;;36.83;5.47;;;6.30;99.90;;;;;;6216917;22;20043;-79
2023/02/01 00:48:52;;;;;;;32.70;5.05;;;6.20;99.90;;;;;;6221007;22;20012;-78
2023/02/01 00:51:21;;;;;;;32.28;5.18;;;6.20;99.90;;;;;;6215132;22;20024;-78
2023/02/01 00:53:46;;;;;;;24.08;5.07;;;6.30;99.90;;;;;;6244998;22;20015;-78
2023/02/01 00:56:13;;;;;;;36.17;5.18;;;6.30;99.90;;;;;;6222418;22;20023;-78
2023/02/01 00:58:39;;;;;;;27.85;4.82;;;6.30;99.90;;;;;;6218818;22;20070;-78
2023/02/01 01:01:07;;;;;;;30.25;4.93;;;6.40;99.90;;;;;;6245447;22;20363;-78
2023/02/01 01:03:35;;;;;;;30.08;4.80;;;6.30;99.90;;;;;;6235233;22;20047;-78
2023/02/01 01:06:04;;;;;;;31.73;5.32;;;6.50;99.90;;;;;;6244735;22;20436;-78
2023/02/01 01:08:30;;;;;;;38.08;5.53;;;6.50;99.90;;;;;;6271342;22;20076;-78
2023/02/01 01:10:56;;;;;;;32.90;6.15;;;6.40;99.90;;;;;;6270005;22;20026;-78
2023/02/01 01:13:21;;;;;;;43.70;6.30;;;6.40;99.90;;;;;;6273296;22;20007;-78
2023/02/01 01:15:47;;;;;;;33.25;5.50;;;6.40;99.90;;;;;;6247526;22;20015;-79
2023/02/01 01:18:13;;;;;;;31.52;5.15;;;6.30;99.90;;;;;;6272611;22;20019;-79
2023/02/01 01:20:40;;;;;;;35.17;5.20;;;6.50;99.90;;;;;;6246745;22;20026;-79
2023/02/01 01:23:07;;;;;;;34.47;5.28;;;6.30;99.90;;;;;;6271556;22;20012;-80
2023/02/01 01:25:39;;;;;;;39.60;4.93;;;6.30;99.90;;;;;;6248012;22;20103;-80
2023/02/01 01:28:06;;;;;;;40.05;5.07;;;6.50;99.90;;;;;;6247927;22;20057;-80
2023/02/01 01:30:34;;;;;;;46.08;5.80;;;6.50;99.90;;;;;;6270439;22;20396;-80
2023/02/01 01:32:59;;;;;;;34.85;4.85;;;6.50;99.90;;;;;;6241964;22;20030;-79
2023/02/01 01:35:25;;;;;;;32.25;5.47;;;6.40;99.90;;;;;;6268861;22;20027;-79
2023/02/01 01:37:51;;;;;;;30.70;4.63;;;6.40;99.90;;;;;;6267285;22;20019;-79
2023/02/01 01:40:16;;;;;;;33.95;4.72;;;6.50;99.90;;;;;;6272610;22;20020;-79
2023/02/01 01:42:43;;;;;;;41.67;5.68;;;6.40;99.90;;;;;;6272249;22;20083;-79
2023/02/01 01:45:21;;;;;;;42.80;5.90;;;6.50;99.90;;;;;;6246797;22;20008;-79
2023/02/01 01:47:55;;;;;;;33.72;4.72;;;6.40;99.90;;;;;;6273366;22;20030;-78
2023/02/01 01:50:29;;;;;;;36.28;5.82;;;6.40;99.90;;;;;;6271198;22;20114;-80
2023/02/01 01:53:02;;;;;;;33.97;5.38;;;6.40;99.90;;;;;;6269803;22;20073;-80
2023/02/01 01:55:31;;;;;;;37.75;5.53;;;6.20;99.90;;;;;;6246965;22;20027;-79
2023/02/01 01:58:07;;;;;;;32.83;5.88;;;6.30;99.90;;;;;;6246848;22;20011;-79
2023/02/01 02:00:34;;;;;;;27.95;4.82;;;6.30;99.90;;;;;;6272828;22;20032;-78
2023/02/01 02:03:07;;;;;;;38.10;5.18;;;6.10;99.90;;;;;;6273733;22;20011;-79
2023/02/01 02:05:32;;;;;;;37.22;5.40;;;6.10;99.90;;;;;;6301727;22;20015;-80
2023/02/01 02:08:02;;;;;;;38.63;5.15;;;6.30;99.90;;;;;;6251323;22;20064;-80
2023/02/01 02:13:15;;;;;;;33.17;5.53;;;6.20;99.90;;;;;;6304069;22;20102;-79
2023/02/01 02:15:57;;;;;;;28.25;5.03;;;6.10;99.90;;;;;;6251775;22;20015;-79
2023/02/01 02:18:34;;;;;;;26.90;5.13;;;6.10;99.90;;;;;;6305410;22;20326;-80
2023/02/01 02:21:37;;;;;;;28.50;5.25;;;5.80;99.90;;;;;;6316255;22;20027;-79
2023/02/01 02:24:29;;;;;;;40.80;6.10;;;6.10;99.90;;;;;;6304284;22;20038;-80
2023/02/01 02:27:04;;;;;;;40.25;5.53;;;6.20;99.90;;;;;;6259058;22;20014;-79
2023/02/01 02:29:39;;;;;;;37.78;5.40;;;6.00;99.90;;;;;;6278549;22;20093;-79
2023/02/01 02:32:36;;;;;;;36.72;5.60;;;5.90;99.90;;;;;;6252641;22;20047;-80
2023/02/01 02:35:16;;;;;;;36.97;5.28;;;5.80;99.90;;;;;;6250733;22;20011;-79
2023/02/01 02:38:11;;;;;;;44.10;5.68;;;6.10;99.90;;;;;;6273679;22;20383;-79
2023/02/01 02:40:48;;;;;;;39.57;6.20;;;6.10;99.90;;;;;;6306562;22;20015;-79
2023/02/01 02:49:08;;;;;;;34.28;5.70;;;6.00;99.90;;;;;;6301954;22;20016;-79
2023/02/01 02:54:46;;;;;;;34.40;4.97;;;6.10;99.90;;;;;;6300671;22;20145;-80
2023/02/01 03:05:46;;;;;;;30.13;4.90;;;6.00;99.90;;;;;;6300233;22;20015;-80
2023/02/01 03:08:23;;;;;;;36.80;5.47;;;6.50;99.90;;;;;;6299065;22;20007;-79
2023/02/01 03:11:06;;;;;;;27.50;5.25;;;6.20;99.90;;;;;;6247643;22;20766;-79
2023/02/01 03:13:57;;;;;;;34.03;5.45;;;6.00;99.90;;;;;;6300784;22;20103;-80
2023/02/01 03:16:46;;;;;;;33.50;5.18;;;6.20;99.90;;;;;;6249868;22;20077;-80
2023/02/01 03:19:11;;;;;;;37.67;5.50;;;6.40;99.90;;;;;;6300694;22;20023;-80
2023/02/01 03:21:40;;;;;;;36.13;5.55;;;6.30;99.90;;;;;;6276813;22;20117;-80
2023/02/01 03:24:41;;;;;;;40.30;5.85;;;6.20;99.90;;;;;;6272728;22;20007;-79
2023/02/01 03:27:16;;;;;;;34.08;6.30;;;6.20;99.90;;;;;;6250079;22;20018;-80
2023/02/01 03:30:05;;;;;;;32.95;5.93;;;6.20;99.90;;;;;;6273275;22;20015;-80
2023/02/01 03:32:57;;;;;;;40.83;5.68;;;6.20;99.90;;;;;;6245109;22;20062;-80
2023/02/01 03:35:20;;;;;;;31.38;4.50;;;6.30;99.90;;;;;;6274534;22;20089;-80
2023/02/01 03:37:46;;;;;;;41.28;6.00;;;6.10;99.90;;;;;;6296746;22;20450;-80
2023/02/01 03:40:14;;;;;;;35.92;5.13;;;6.20;99.90;;;;;;6246110;22;20802;-80
2023/02/01 03:42:52;;;;;;;41.05;5.82;;;6.40;99.90;;;;;;6298070;22;20022;-79
2023/02/01 03:45:21;;;;;;;40.50;5.45;;;6.10;99.90;;;;;;6245192;22;20011;-80
2023/02/01 03:47:50;;;;;;;37.58;5.78;;;6.30;99.90;;;;;;6247506;22;20026;-79
2023/02/01 03:50:22;;;;;;;32.15;4.97;;;6.40;99.90;;;;;;6301203;22;20015;-79
2023/02/01 03:52:58;;;;;;;34.95;5.93;;;6.30;99.90;;;;;;6250281;22;20011;-80
2023/02/01 03:55:27;;;;;;;36.50;4.43;;;6.40;99.90;;;;;;6223761;22;20528;-79
2023/02/01 03:58:03;;;;;;;38.92;6.03;;;6.30;99.90;;;;;;6249529;22;20076;-79
2023/02/01 04:00:29;;;;;;;37.70;5.43;;;6.30;99.90;;;;;;6302464;22;20119;-79
2023/02/01 04:02:55;;;;;;;44.05;6.07;;;6.30;99.90;;;;;;6270520;22;20424;-78
2023/02/01 04:05:22;;;;;;;32.88;5.70;;;6.30;99.90;;;;;;6270364;22;20046;-78
2023/02/01 04:07:47;;;;;;;40.75;5.93;;;6.00;99.90;;;;;;6244354;22;20376;-79
2023/02/01 04:10:15;;;;;;;48.75;6.97;;;6.40;99.90;;;;;;6270593;22;20054;-82
2023/02/01 04:12:41;;;;;;;33.17;5.90;;;6.10;99.90;;;;;;6246427;22;20383;-80
2023/02/01 04:15:07;;;;;;;35.97;5.18;;;6.20;99.90;;;;;;6272065;22;20078;-80
2023/02/01 04:17:33;;;;;;;41.55;5.63;;;6.30;99.90;;;;;;6243334;22;20024;-80
2023/02/01 04:19:58;;;;;;;36.17;6.97;;;6.20;99.90;;;;;;6270363;22;20008;-80
2023/02/01 04:22:24;;;;;;;48.78;6.13;;;6.40;99.90;;;;;;6244901;22;20008;-80
2023/02/01 04:24:50;;;;;;;42.67;6.13;;;6.50;99.90;;;;;;6271149;22;20008;-80
2023/02/01 04:27:16;;;;;;;33.30;5.30;;;6.30;99.90;;;;;;6248538;22;20019;-80
2023/02/01 04:29:41;;;;;;;40.33;5.05;;;6.30;99.90;;;;;;6248096;22;20012;-80
2023/02/01 04:32:07;;;;;;;39.38;5.95;;;6.40;99.90;;;;;;6246956;22;20317;-79
2023/02/01 04:34:33;;;;;;;36.42;5.78;;;6.20;99.90;;;;;;6274264;22;20019;-81
2023/02/01 04:36:59;;;;;;;47.60;5.50;;;6.40;99.90;;;;;;6274327;22;20012;-79
2023/02/01 04:39:24;;;;;;;38.20;5.95;;;6.20;99.90;;;;;;6273114;22;20016;-80
2023/02/01 04:41:50;;;;;;;39.63;6.53;;;6.30;99.90;;;;;;6248284;22;20092;-80
2023/02/01 04:44:18;;;;;;;38.25;5.70;;;6.00;99.90;;;;;;6274055;22;20014;-80
2023/02/01 04:46:45;;;;;;;49.38;5.82;;;6.20;99.90;;;;;;6273888;22;20012;-80
2023/02/01 04:49:11;;;;;;;34.17;5.88;;;6.40;99.90;;;;;;6247294;22;20012;-80
2023/02/01 04:51:37;;;;;;;44.70;6.35;;;6.10;99.90;;;;;;6247601;22;20018;-80
2023/02/01 04:54:03;;;;;;;37.97;5.72;;;5.90;99.90;;;;;;6246996;22;20016;-80
2023/02/01 04:56:29;;;;;;;40.72;5.93;;;6.00;99.90;;;;;;6273898;22;20007;-80
2023/02/01 04:58:55;;;;;;;33.55;4.50;;;5.90;99.90;;;;;;6272737;22;20138;-80
2023/02/01 05:01:22;;;;;;;36.28;5.43;;;6.20;99.90;;;;;;6271640;22;20035;-80
2023/02/01 05:03:47;;;;;;;36.38;5.65;;;6.20;99.90;;;;;;6244629;22;20091;-80
2023/02/01 05:06:13;;;;;;;36.42;5.45;;;6.10;99.90;;;;;;6273602;22;20047;-80
2023/02/01 05:08:39;;;;;;;43.22;5.97;;;6.10;99.90;;;;;;6244858;22;20053;-79
2023/02/01 05:11:05;;;;;;;36.67;5.22;;;6.20;99.90;;;;;;6247302;22;20343;-80
2023/02/01 05:13:49;;;;;;;36.55;5.65;;;6.10;99.90;;;;;;6247431;22;20065;-80
2023/02/01 05:16:15;;;;;;;36.65;5.95;;;6.00;99.90;;;;;;6247591;22;20396;-80
2023/02/01 05:18:41;;;;;;;39.65;5.63;;;6.10;99.90;;;;;;6273504;22;20348;-80
2023/02/01 05:21:07;;;;;;;31.80;4.95;;;6.00;99.90;;;;;;6255840;22;20101;-80
2023/02/01 05:24:09;;;;;;;37.20;6.32;;;6.00;99.90;;;;;;6247097;22;20053;-79
2023/02/01 05:26:18;;;;;;;34.67;5.90;;;5.90;99.90;;;;;;6273797;22;20115;-80
2023/02/01 05:28:44;;;;;;;44.13;6.43;;;6.00;99.90;;;;;;6248173;22;20019;-80
2023/02/01 05:31:11;;;;;;;35.83;5.13;;;6.20;99.90;;;;;;6246022;22;20019;-80
2023/02/01 05:33:36;;;;;;;45.83;6.57;;;6.30;99.90;;;;;;6273968;22;20091;-79
2023/02/01 05:36:02;;;;;;;39.13;5.18;;;6.10;99.90;;;;;;6248265;22;20124;-80
2023/02/01 05:38:29;;;;;;;32.63;4.40;;;6.40;99.90;;;;;;6246603;22;20007;-80
2023/02/01 05:40:55;;;;;;;36.97;5.93;;;6.20;99.90;;;;;;6272584;22;20015;-79
2023/02/01 05:43:21;;;;;;;39.42;5.32;;;6.20;99.90;;;;;;6273872;22;20023;-80
2023/02/01 05:45:47;;;;;;;33.08;5.18;;;6.40;99.90;;;;;;6273821;22;20011;-79
2023/02/01 05:48:13;;;;;;;33.97;5.28;;;6.30;99.90;;;;;;6273232;22;20020;-79
2023/02/01 05:50:39;;;;;;;47.13;5.85;;;6.40;99.90;;;;;;6297604;22;20012;-80
2023/02/01 05:53:05;;;;;;;34.05;5.22;;;6.40;99.90;;;;;;6272444;22;20466;-80
2023/02/01 05:55:31;;;;;;;38.35;6.30;;;6.50;99.90;;;;;;6273877;22;20106;-80
2023/02/01 05:57:56;;;;;;;47.40;5.90;;;6.30;99.90;;;;;;6261314;22;20016;-80
2023/02/01 06:00:23;;;;;;;40.22;5.85;;;6.20;99.90;;;;;;6285758;22;20034;-80
2023/02/01 06:02:48;;;;;;;33.88;5.80;;;6.20;99.90;;;;;;6282071;22;20012;-80
2023/02/01 06:05:14;;;;;;;30.63;4.88;;;6.40;99.90;;;;;;6234378;22;20055;-79
2023/02/01 06:07:40;;;;;;;41.72;5.47;;;6.10;99.90;;;;;;6257307;22;20011;-80
2023/02/01 06:10:06;;;;;;;33.13;5.90;;;6.10;99.90;;;;;;6247990;22;20022;-80
2023/02/01 06:12:32;;;;;;;35.60;4.93;;;6.20;99.90;;;;;;6222872;22;20034;-79
2023/02/01 06:14:58;;;;;;;37.78;5.35;;;6.10;99.90;;;;;;6222271;22;20011;-80
2023/02/01 06:17:24;;;;;;;35.15;5.35;;;6.10;99.90;;;;;;6223180;22;20483;-80
2023/02/01 06:19:50;;;;;;;37.22;5.55;;;6.40;99.90;;;;;;6221652;22;20011;-80
2023/02/01 06:22:16;;;;;;;40.15;5.68;;;6.20;99.90;;;;;;6222305;22;20015;-80
2023/02/01 06:24:41;;;;;;;40.63;5.90;;;5.90;99.90;;;;;;6220144;22;20019;-78
2023/02/01 06:27:09;;;;;;;41.95;5.10;;;6.10;99.90;;;;;;6221006;22;20003;-79
2023/02/01 06:29:35;;;;;;;41.85;6.03;;;5.90;99.90;;;;;;6246684;22;20027;-78
2023/02/01 06:32:00;;;;;;;31.70;5.63;;;5.90;99.90;;;;;;6245511;22;20011;-79
2023/02/01 06:34:26;;;;;;;43.97;4.80;;;5.90;99.90;;;;;;6247183;22;20016;-78
2023/02/01 06:36:53;;;;;;;35.92;6.07;;;6.10;99.90;;;;;;6245059;22;20016;-78
2023/02/01 06:39:18;;;;;;;31.33;4.43;;;6.30;99.90;;;;;;6244283;22;20011;-79
2023/02/01 06:41:48;;;;;;;31.88;4.93;;;6.00;99.90;;;;;;6221465;22;20043;-79
2023/02/01 06:44:15;;;;;;;35.60;5.10;;;6.00;99.90;;;;;;6222055;22;20341;-79
2023/02/01 06:46:40;;;;;;;37.28;5.45;;;6.10;99.90;;;;;;6245660;22;20004;-78
2023/02/01 06:49:06;;;;;;;41.92;5.80;;;6.00;99.90;;;;;;6220390;22;20007;-78
2023/02/01 06:51:32;;;;;;;31.08;4.55;;;6.40;99.90;;;;;;6247077;22;20016;-78
2023/02/01 06:53:57;;;;;;;40.60;6.70;;;6.30;99.90;;;;;;6245499;22;20034;-78
2023/02/01 06:56:24;;;;;;;34.67;5.65;;;6.10;99.90;;;;;;6246659;22;20023;-79
2023/02/01 06:58:50;;;;;;;40.47;5.25;;;6.40;99.90;;;;;;6220671;22;20012;-78
2023/02/01 07:01:16;;;;;;;38.15;4.97;;;6.20;99.90;;;;;;6246290;22;20440;-78
2023/02/01 07:03:42;;;;;;;42.60;6.15;;;6.40;99.90;;;;;;6271522;22;20016;-79
2023/02/01 07:06:08;;;;;;;41.50;5.22;;;6.50;99.90;;;;;;6243916;22;20019;-79
2023/02/01 07:08:36;;;;;;;23.30;4.00;;;6.40;99.90;;;;;;6243697;22;20007;-79
2023/02/01 07:11:04;;;;;;;42.08;5.90;;;6.50;99.90;;;;;;6244665;22;20016;-79
2023/02/01 07:13:30;;;;;;;35.22;5.25;;;6.40;99.90;;;;;;6218989;22;20111;-79
2023/02/01 07:15:58;;;;;;;36.20;5.07;;;6.50;99.90;;;;;;6218489;22;20780;-78
2023/02/01 07:18:24;;;;;;;32.78;5.53;;;6.40;99.90;;;;;;6269473;22;20077;-79
2023/02/01 07:20:51;;;;;;;34.78;4.93;;;6.30;99.90;;;;;;6243216;22;20011;-79
2023/02/01 07:23:16;;;;;;;42.10;5.40;;;6.40;99.90;;;;;;6218194;22;20066;-80
2023/02/01 07:25:43;;;;;;;35.20;5.72;;;6.50;99.90;;;;;;6269628;22;20365;-81
2023/02/01 07:28:08;;;;;;;38.70;5.30;;;6.20;99.90;;;;;;6220533;22;20416;-80
2023/02/01 07:30:34;;;;;;;34.30;5.07;;;6.30;99.90;;;;;;6219965;22;20121;-79
2023/02/01 07:33:00;;;;;;;39.42;5.10;;;6.10;99.90;;;;;;6217611;22;20158;-78
2023/02/01 07:35:27;;;;;;;45.00;6.05;;;6.50;99.90;;;;;;6241663;22;20589;-79
2023/02/01 07:37:53;;;;;;;41.22;5.65;;;6.40;99.90;;;;;;6244150;22;20741;-78
2023/02/01 07:40:22;;;;;;;34.30;4.95;;;6.60;99.90;;;;;;6243021;22;20020;-77
2023/02/01 07:42:48;;;;;;;46.47;6.55;;;6.50;99.90;;;;;;6245066;22;20008;-78
2023/02/01 07:45:15;;;;;;;37.83;5.90;;;6.20;99.90;;;;;;6242103;22;20023;-77
2023/02/01 07:47:40;;;;;;;52.00;6.00;;;6.10;99.90;;;;;;6243853;22;20012;-78
2023/02/01 07:50:06;;;;;;;39.40;5.45;;;6.20;99.90;;;;;;6218249;22;20315;-78
2023/02/01 07:52:32;;;;;;;43.70;5.88;;;6.40;99.90;;;;;;6243275;22;20312;-78
2023/02/01 07:54:57;;;;;;;40.00;6.07;;;6.40;99.90;;;;;;6214212;22;20024;-78
2023/02/01 07:57:23;;;;;;;38.72;6.10;;;6.30;99.90;;;;;;6217092;22;20074;-79
2023/02/01 08:02:33;;;;;;;28.92;4.85;;;6.50;99.90;;;;;;6270172;22;20034;-77
2023/02/01 08:04:58;;;;;;;40.90;6.45;;;6.40;99.90;;;;;;6244377;22;20080;-78
2023/02/01 08:07:24;;;;;;;41.58;5.47;;;6.30;99.90;;;;;;6244409;22;20090;-78
2023/02/01 08:09:50;;;;;;;42.15;5.90;;;6.50;99.90;;;;;;6242647;22;20015;-78
2023/02/01 08:12:15;;;;;;;44.05;5.53;;;6.30;99.90;;;;;;6243757;22;20068;-79
2023/02/01 08:14:41;;;;;;;36.72;5.28;;;6.50;99.90;;;;;;6245539;22;20047;-77
2023/02/01 08:17:07;;;;;;;33.17;4.75;;;6.30;99.90;;;;;;6246749;22;20015;-79
2023/02/01 08:19:32;;;;;;;40.85;5.70;;;6.40;99.90;;;;;;6220186;22;20089;-77
2023/02/01 08:21:59;;;;;;;38.45;5.20;;;6.60;99.90;;;;;;6222713;22;20058;-77
2023/02/01 08:24:25;;;;;;;35.35;4.53;;;6.40;99.90;;;;;;6221664;22;20008;-80
2023/02/01 08:26:50;;;;;;;29.05;4.63;;;6.50;99.90;;;;;;6222714;22;20021;-78
2023/02/01 08:29:16;;;;;;;35.20;5.18;;;6.40;99.90;;;;;;6220523;22;20015;-77
2023/02/01 08:31:43;;;;;;;25.35;5.20;;;6.50;99.90;;;;;;6246232;22;20045;-78
2023/02/01 08:34:09;;;;;;;37.83;6.03;;;6.60;99.90;;;;;;6222738;22;20034;-79
2023/02/01 08:36:35;;;;;;;28.45;5.70;;;6.60;99.90;;;;;;6272990;22;20008;-79
2023/02/01 08:39:05;;;;;;;38.00;5.82;;;6.40;99.90;;;;;;6219568;22;20018;-79
2023/02/01 08:41:31;;;;;;;33.90;5.03;;;6.60;99.90;;;;;;6243097;22;20016;-78
2023/02/01 08:43:57;;;;;;;33.88;5.25;;;6.70;99.90;;;;;;6220341;22;20058;-80
2023/02/01 08:46:23;;;;;;;39.75;5.15;;;6.40;99.90;;;;;;6218678;22;20316;-78
2023/02/01 08:48:49;;;;;;;38.35;5.53;;;6.70;99.90;;;;;;6246759;22;20051;-80
2023/02/01 08:51:17;;;;;;;35.58;5.03;;;6.70;99.90;;;;;;6243366;22;20073;-78
2023/02/01 08:53:43;;;;;;;28.63;5.15;;;6.70;99.90;;;;;;6219022;22;20156;-79
2023/02/01 08:56:14;;;;;;;28.02;4.00;;;6.60;99.90;;;;;;6242071;22;20046;-78
2023/02/01 08:58:40;;;;;;;24.92;4.18;;;6.60;99.90;;;;;;6240686;22;20019;-80
2023/02/01 09:01:13;;;;;;;37.10;5.53;;;6.70;99.90;;;;;;6245969;22;20102;-80
2023/02/01 09:03:40;;;;;;;28.65;4.50;;;6.60;99.90;;;;;;6195092;22;20020;-80
2023/02/01 09:06:09;;;;;;;33.10;4.75;;;6.50;99.90;;;;;;6267708;22;20300;-79
2023/02/01 09:08:35;;;;;;;33.28;4.50;;;6.70;99.90;;;;;;6241798;22;20007;-78
2023/02/01 09:11:06;;;;;;;31.75;4.78;;;6.60;99.90;;;;;;6216305;22;20051;-78
2023/02/01 09:13:33;;;;;;;34.13;4.90;;;6.60;99.90;;;;;;6217428;22;20088;-78
2023/02/01 09:15:59;;;;;;;38.85;4.90;;;6.60;99.90;;;;;;6243620;22;20117;-77
2023/02/01 09:18:25;;;;;;;26.50;4.25;;;6.50;99.90;;;;;;6242776;22;20023;-79
2023/02/01 09:20:51;;;;;;;34.35;4.82;;;6.40;99.90;;;;;;6242655;22;20027;-76
2023/02/01 09:23:17;;;;;;;29.02;4.57;;;6.70;99.90;;;;;;6241482;22;20015;-78
2023/02/01 09:25:42;;;;;;;30.38;4.13;;;6.70;99.90;;;;;;6243508;22;20023;-80
2023/02/01 09:28:09;;;;;;;29.83;4.25;;;6.60;99.90;;;;;;6243735;22;20099;-79
2023/02/01 09:30:36;;;;;;;31.95;4.75;;;6.70;99.90;;;;;;6244911;22;20019;-79
2023/02/01 09:33:02;;;;;;;28.73;4.40;;;6.80;99.90;;;;;;6243027;22;20022;-79
2023/02/01 09:35:28;;;;;;;34.97;4.78;;;6.50;99.90;;;;;;6218047;22;20478;-80
2023/02/01 09:37:54;;;;;;;26.08;4.10;;;6.50;99.90;;;;;;6219116;22;20023;-78
2023/02/01 09:40:21;;;;;;;30.85;4.88;;;6.40;99.90;;;;;;6242229;22;20751;-81
2023/02/01 09:43:24;;;;;;;35.38;4.97;;;6.60;99.90;;;;;;6221195;22;20016;-78
2023/02/01 09:46:06;;;;;;;30.75;5.07;;;6.70;99.90;;;;;;6247564;22;20050;-78
2023/02/01 09:48:37;;;;;;;22.55;3.90;;;6.70;99.90;;;;;;6238437;22;20019;-77
2023/02/01 09:51:06;;;;;;;30.80;4.18;;;6.40;99.90;;;;;;6267715;22;20022;-78
2023/02/01 09:53:40;;;;;;;35.55;4.80;;;6.40;99.90;;;;;;6273189;22;20711;-79
2023/02/01 09:56:20;;;;;;;29.40;4.18;;;6.20;99.90;;;;;;6224746;22;20399;-80
2023/02/01 09:59:10;;;;;;;34.53;4.90;;;6.60;99.90;;;;;;6217294;22;20023;-78
2023/02/01 10:01:37;;;;;;;36.28;4.82;;;6.50;99.90;;;;;;6242616;22;20011;-79
2023/02/01 10:04:11;;;;;;;36.58;5.40;;;6.60;99.90;;;;;;6215253;22;20022;-79
2023/02/01 10:06:43;;;;;;;33.17;5.10;;;6.60;99.90;;;;;;6218049;22;20015;-80
2023/02/01 10:09:20;;;;;;;29.17;4.78;;;6.70;99.90;;;;;;6219160;22;20015;-80
2023/02/01 10:12:14;;;;;;;21.42;3.33;;;6.50;99.90;;;;;;6218554;22;20019;-80
2023/02/01 10:15:01;;;;;;;34.80;4.93;;;6.20;99.90;;;;;;6217935;22;20012;-80
2023/02/01 10:17:46;;;;;;;31.35;4.72;;;6.00;99.90;;;;;;6216599;22;20018;-80
2023/02/01 10:20:18;;;;;;;20.85;3.92;;;6.50;99.90;;;;;;6220677;22;20020;-81
2023/02/01 10:23:04;;;;;;;24.40;4.22;;;6.20;99.90;;;;;;6217046;22;20012;-79
2023/02/01 10:25:48;;;;;;;30.98;4.68;;;6.60;99.90;;;;;;6244815;22;20455;-80
2023/02/01 10:28:17;;;;;;;26.40;4.28;;;6.30;99.90;;;;;;6242845;22;20391;-79
2023/02/01 10:30:47;;;;;;;33.30;4.63;;;6.30;99.90;;;;;;6242301;22;20019;-80
2023/02/01 10:33:33;;;;;;;25.75;4.00;;;6.50;99.90;;;;;;6215128;22;20019;-80
2023/02/01 10:36:07;;;;;;;26.15;4.95;;;6.40;99.90;;;;;;6242062;22;20019;-78
2023/02/01 10:38:33;;;;;;;26.55;4.32;;;6.60;99.90;;;;;;6217823;22;20410;-78
2023/02/01 10:41:11;;;;;;;31.30;4.25;;;6.50;99.90;;;;;;6218843;22;20116;-78
2023/02/01 10:43:38;;;;;;;36.13;5.03;;;6.60;99.90;;;;;;6221326;22;20007;-78
2023/02/01 10:46:05;;;;;;;27.20;4.03;;;6.90;99.90;;;;;;6245598;22;20011;-78
2023/02/01 10:48:31;;;;;;;29.08;4.53;;;6.90;99.90;;;;;;6218886;22;20008;-78
2023/02/01 10:51:05;;;;;;;31.73;4.55;;;7.00;99.90;;;;;;6244032;22;20019;-78
2023/02/01 10:54:10;;;;;;;37.83;5.03;;;7.00;99.90;;;;;;6244390;22;20343;-78
2023/02/01 10:56:38;;;;;;;26.73;4.45;;;6.90;99.90;;;;;;6068192;23;20465;-78
2023/02/01 10:59:06;;;;;;;33.88;5.25;;;6.90;99.90;;;;;;6090125;23;20053;-77
2023/02/01 11:01:39;;;;;;;30.20;4.65;;;6.90;99.90;;;;;;6090710;23;20021;-78
2023/02/01 11:04:10;;;;;;;35.15;4.88;;;6.70;99.90;;;;;;6101904;23;20017;-77
2023/02/01 11:06:38;;;;;;;33.55;5.15;;;6.60;99.90;;;;;;6097424;23;20040;-78
2023/02/01 11:09:09;;;;;;;33.70;4.60;;;6.50;99.90;;;;;;6118483;23;20489;-77
2023/02/01 11:11:58;;;;;;;31.17;4.47;;;6.60;99.90;;;;;;6121111;23;20093;-79
2023/02/01 11:14:24;;;;;;;39.80;6.38;;;6.40;99.90;;;;;;6119305;23;20104;-80
2023/02/01 11:16:57;;;;;;;38.35;5.60;;;6.50;99.90;;;;;;6120898;23;20069;-78
2023/02/01 11:19:24;;;;;;;29.30;4.47;;;6.60;99.90;;;;;;6120880;23;20053;-77
2023/02/01 11:21:52;;;;;;;45.20;5.82;;;6.60;99.90;;;;;;6123506;23;20024;-78
2023/02/01 11:24:38;;;;;;;31.27;5.45;;;6.70;99.90;;;;;;6096616;23;20060;-78
2023/02/01 11:27:12;;;;;;;35.70;5.80;;;6.50;99.90;;;;;;6120644;23;20036;-77
2023/02/01 11:29:45;;;;;;;55.70;6.70;;;6.20;99.90;;;;;;6116589;23;20103;-79
2023/02/01 11:32:13;;;;;;;32.67;4.65;;;6.70;99.90;;;;;;6188899;22;20012;-80
2023/02/01 11:34:46;;;;;;;39.40;4.80;;;6.50;99.90;;;;;;6244074;22;20050;-79
2023/02/01 11:37:36;;;;;;;38.47;5.15;;;6.90;99.90;;;;;;6244058;22;20288;-78
2023/02/01 11:40:16;;;;;;;34.95;5.45;;;7.20;99.90;;;;;;6218481;22;20019;-81
2023/02/01 11:42:57;;;;;;;35.72;5.88;;;7.10;99.90;;;;;;6267215;22;20015;-80
2023/02/01 11:45:34;;;;;;;36.65;4.57;;;6.90;99.90;;;;;;6243236;22;20030;-79
2023/02/01 11:48:00;;;;;;;37.25;5.25;;;7.30;99.90;;;;;;6218739;22;20043;-79
2023/02/01 11:51:10;;;;;;;35.05;5.72;;;7.00;99.90;;;;;;6243000;22;20015;-79
2023/02/01 11:54:01;;;;;;;40.65;5.10;;;7.30;99.90;;;;;;6119138;23;20263;-79
2023/02/01 11:56:37;;;;;;;32.17;5.18;;;7.10;99.90;;;;;;6121280;23;20049;-79
2023/02/01 11:59:17;;;;;;;38.03;5.82;;;7.50;99.90;;;;;;6122189;23;20028;-79
2023/02/01 12:02:18;;;;;;;28.77;3.97;;;7.10;99.90;;;;;;6121569;23;20052;-79
2023/02/01 12:05:07;;;;;;;40.55;5.68;;;7.40;99.90;;;;;;6120563;23;20149;-80
2023/02/01 12:07:52;;;;;;;38.60;5.47;;;7.50;99.90;;;;;;6118366;23;20552;-79
2023/02/01 12:10:21;;;;;;;31.25;4.88;;;7.50;99.90;;;;;;6118722;23;20017;-79
2023/02/01 12:13:01;;;;;;;29.05;4.38;;;7.40;99.90;;;;;;6117814;23;20045;-79
2023/02/01 12:15:28;;;;;;;29.55;4.60;;;7.50;99.90;;;;;;6120595;23;20010;-79
2023/02/01 12:18:14;;;;;;;44.67;6.18;;;7.70;99.90;;;;;;6118133;23;20087;-79
2023/02/01 12:20:52;;;;;;;35.85;6.00;;;7.70;99.90;;;;;;6118160;23;20096;-80
2023/02/01 12:23:47;;;;;;;40.38;6.22;;;7.80;99.90;;;;;;6116827;23;20113;-80
2023/02/01 12:26:59;;;;;;;52.40;6.90;;;7.70;99.90;;;;;;6141184;23;20048;-82
2023/02/01 12:29:43;;;;;;;39.42;6.13;;;7.70;99.90;;;;;;6134283;23;20065;-81
2023/02/01 12:32:43;;;;;;;29.80;5.32;;;7.90;99.90;;;;;;6152369;23;20463;-83
2023/02/01 12:35:20;;;;;;;43.22;6.32;;;8.00;99.90;;;;;;6144653;23;20047;-80
2023/02/01 12:37:54;;;;;;;48.15;5.90;;;8.20;99.90;;;;;;6174151;23;20021;-83
2023/02/01 12:40:37;;;;;;;36.97;5.90;;;8.10;99.90;;;;;;6125483;23;20021;-86
2023/02/01 12:43:25;;;;;;;46.15;5.78;;;7.90;99.90;;;;;;6129686;23;20469;-82
2023/02/01 12:45:59;;;;;;;38.20;6.03;;;7.90;99.90;;;;;;6178293;23;20017;-83
2023/02/01 12:48:56;;;;;;;39.22;5.68;;;7.90;99.90;;;;;;6153276;23;20019;-81
2023/02/01 12:51:43;;;;;;;43.10;6.47;;;7.60;99.90;;;;;;6128734;23;20016;-81
2023/02/01 12:54:20;;;;;;;43.80;5.85;;;7.60;99.90;;;;;;6125107;23;20097;-82
2023/02/01 12:56:51;;;;;;;53.25;7.55;;;7.60;99.90;;;;;;6178224;23;20083;-81
2023/02/01 12:59:26;;;;;;;41.78;5.78;;;7.90;99.90;;;;;;6155187;22;20444;-82
2023/02/01 13:02:21;;;;;;;44.15;7.03;;;8.00;99.90;;;;;;6219386;22;20023;-80
2023/02/01 13:05:11;;;;;;;49.05;6.72;;;8.00;99.90;;;;;;6243408;22;20019;-80
2023/02/01 13:07:43;;;;;;;34.75;5.45;;;7.80;99.90;;;;;;6247036;22;20363;-80
2023/02/01 13:10:40;;;;;;;35.25;5.85;;;7.80;99.90;;;;;;6274029;22;20022;-79
2023/02/01 13:13:30;;;;;;;47.03;6.80;;;7.80;99.90;;;;;;6246263;22;20026;-80
2023/02/01 13:16:31;;;;;;;36.20;6.05;;;7.90;99.90;;;;;;6248216;22;20034;-79
2023/02/01 13:19:12;;;;;;;39.22;6.07;;;8.00;99.90;;;;;;6272721;22;20012;-80
2023/02/01 13:21:53;;;;;;;36.33;5.43;;;7.80;99.90;;;;;;6247605;22;20019;-79
2023/02/01 13:24:37;;;;;;;36.83;5.75;;;7.80;99.90;;;;;;6288172;22;20042;-78
2023/02/01 13:27:03;;;;;;;39.70;5.90;;;7.90;99.90;;;;;;6268291;22;20303;-81
2023/02/01 13:29:31;;;;;;;38.42;4.88;;;8.10;99.90;;;;;;6250320;22;20031;-79
2023/02/01 13:32:17;;;;;;;41.58;5.38;;;8.00;99.90;;;;;;6267679;22;20090;-80
2023/02/01 13:35:17;;;;;;;34.47;5.03;;;8.00;99.90;;;;;;6244543;22;20359;-78